createdAt,value
2022-09-24T00:01:53.005Z,12.20
2022-09-24T00:04:22.026Z,12.53
2022-09-24T00:06:51.536Z,12.60
2022-09-24T00:09:21.980Z,11.60
2022-09-24T00:11:53.396Z,12.77
2022-09-24T00:14:21.436Z,10.83
2022-09-24T00:16:49.729Z,11.47
2022-09-24T00:19:17.807Z,11.03
2022-09-24T00:21:45.791Z,11.53
2022-09-24T00:24:37.888Z,11.63
2022-09-24T00:27:06.383Z,10.43
2022-09-24T00:29:35.929Z,10.40
2022-09-24T00:32:05.649Z,11.13
2022-09-24T00:34:33.849Z,9.77
2022-09-24T00:37:01.895Z,10.30
2022-09-24T00:39:31.360Z,10.00
2022-09-24T00:41:59.683Z,9.90
2022-09-24T00:44:50.831Z,9.30
2022-09-24T00:47:27.161Z,9.93
2022-09-24T00:50:06.401Z,10.20
2022-09-24T00:52:35.442Z,9.80
2022-09-24T00:55:05.063Z,9.50
2022-09-24T00:57:33.393Z,9.77
2022-09-24T01:00:01.492Z,9.13
2022-09-24T01:02:31.058Z,11.17
2022-09-24T01:05:00.366Z,8.97
2022-09-24T01:07:28.638Z,9.27
2022-09-24T01:09:56.731Z,8.93
2022-09-24T01:12:30.886Z,9.53
2022-09-24T01:15:09.738Z,9.37
2022-09-24T01:17:40.637Z,7.87
2022-09-24T01:20:30.380Z,7.63
2022-09-24T01:23:15.369Z,7.30
2022-09-24T01:25:49.410Z,7.07
2022-09-24T01:28:34.779Z,7.60
2022-09-24T01:31:08.094Z,8.47
2022-09-24T01:33:37.890Z,7.27
2022-09-24T01:36:08.515Z,7.00
2022-09-24T01:38:39.906Z,6.87
2022-09-24T01:41:10.627Z,7.23
2022-09-24T01:43:39.275Z,6.83
2022-09-24T01:46:10.350Z,6.00
2022-09-24T01:48:38.719Z,6.73
2022-09-24T01:51:11.567Z,6.50
2022-09-24T01:53:43.965Z,6.67
2022-09-24T01:56:16.709Z,5.80
2022-09-24T01:58:49.192Z,6.77
2022-09-24T02:01:22.752Z,6.83
2022-09-24T02:03:54.707Z,6.73
2022-09-24T02:06:27.473Z,7.57
2022-09-24T02:08:58.025Z,7.63
2022-09-24T02:11:28.121Z,6.67
2022-09-24T02:14:00.847Z,6.83
2022-09-24T02:16:34.521Z,7.03
2022-09-24T02:19:06.175Z,6.80
2022-09-24T02:21:35.924Z,6.00
2022-09-24T02:24:08.033Z,6.30
2022-09-24T02:26:36.089Z,6.83
2022-09-24T02:29:05.434Z,6.03
2022-09-24T02:31:38.709Z,7.23
2022-09-24T02:34:23.512Z,6.83
2022-09-24T02:36:53.891Z,6.67
2022-09-24T02:39:22.391Z,6.70
2022-09-24T02:41:51.121Z,7.73
2022-09-24T02:44:20.077Z,7.20
2022-09-24T02:46:50.875Z,7.47
2022-09-24T02:49:19.475Z,6.97
2022-09-24T02:51:47.661Z,6.20
2022-09-24T02:54:15.768Z,6.93
2022-09-24T02:56:43.906Z,6.30
2022-09-24T02:59:12.306Z,7.20
2022-09-24T03:01:40.500Z,6.50
2022-09-24T03:04:10.490Z,7.20
2022-09-24T03:06:38.632Z,7.33
2022-09-24T03:09:06.861Z,8.00
2022-09-24T03:11:35.753Z,7.77
2022-09-24T03:14:03.909Z,7.70
2022-09-24T03:16:32.013Z,7.53
2022-09-24T03:19:00.236Z,7.87
2022-09-24T03:21:29.702Z,8.10
2022-09-24T03:23:57.771Z,9.30
2022-09-24T03:26:25.930Z,8.77
2022-09-24T03:28:54.083Z,7.53
2022-09-24T03:31:24.267Z,7.70
2022-09-24T03:33:52.998Z,7.90
2022-09-24T03:36:22.695Z,8.80
2022-09-24T03:38:54.315Z,8.10
2022-09-24T03:41:22.463Z,7.90
2022-09-24T03:43:50.602Z,8.40
2022-09-24T03:46:19.314Z,7.87
2022-09-24T03:48:49.258Z,8.30
2022-09-24T03:51:20.115Z,7.60
2022-09-24T03:53:49.785Z,6.67
2022-09-24T03:56:19.272Z,7.27
2022-09-24T03:58:48.474Z,5.77
2022-09-24T04:01:20.764Z,5.40
2022-09-24T04:03:49.871Z,5.90
2022-09-24T04:06:23.418Z,5.10
2022-09-24T04:08:53.955Z,4.63
2022-09-24T04:11:24.052Z,4.50
2022-09-24T04:13:52.194Z,4.40
2022-09-24T04:16:20.268Z,5.50
2022-09-24T04:18:48.934Z,5.03
2022-09-24T04:21:16.890Z,4.60
2022-09-24T04:23:45.111Z,3.90
2022-09-24T04:26:13.253Z,3.77
2022-09-24T04:28:42.622Z,4.23
2022-09-24T04:31:10.710Z,4.30
2022-09-24T04:33:38.910Z,3.87
2022-09-24T04:36:09.039Z,3.27
2022-09-24T04:38:37.145Z,3.50
2022-09-24T04:41:06.753Z,3.40
2022-09-24T04:43:34.876Z,4.17
2022-09-24T04:46:04.926Z,4.03
2022-09-24T04:48:34.688Z,3.50
2022-09-24T04:51:05.794Z,3.70
2022-09-24T04:53:34.151Z,4.23
2022-09-24T04:56:03.862Z,4.07
2022-09-24T04:58:32.429Z,4.37
2022-09-24T05:01:05.036Z,5.30
2022-09-24T05:03:33.360Z,5.00
2022-09-24T05:06:02.002Z,4.30
2022-09-24T05:08:30.185Z,4.93
2022-09-24T05:10:58.335Z,5.20
2022-09-24T05:13:28.599Z,5.93
2022-09-24T05:15:57.268Z,5.13
2022-09-24T05:18:27.025Z,4.90
2022-09-24T05:20:55.085Z,4.73
2022-09-24T05:23:23.152Z,5.30
2022-09-24T05:26:08.504Z,4.60
2022-09-24T05:28:37.647Z,3.97
2022-09-24T05:34:50.957Z,4.43
2022-09-24T05:37:20.358Z,5.20
2022-09-24T05:39:57.836Z,3.63
2022-09-24T05:42:25.954Z,3.93
2022-09-24T05:44:53.981Z,3.80
2022-09-24T05:47:22.688Z,3.60
2022-09-24T05:49:50.855Z,4.97
2022-09-24T05:52:20.412Z,3.53
2022-09-24T05:54:48.428Z,4.20
2022-09-24T05:57:16.578Z,4.60
2022-09-24T05:59:44.706Z,4.03
2022-09-24T06:02:14.983Z,3.73
2022-09-24T06:04:43.052Z,3.80
2022-09-24T06:07:11.669Z,3.87
2022-09-24T06:09:41.163Z,2.93
2022-09-24T06:12:11.036Z,2.97
2022-09-24T06:14:41.393Z,3.27
2022-09-24T06:17:09.496Z,3.70
2022-09-24T06:19:37.624Z,3.47
2022-09-24T06:22:05.648Z,3.40
2022-09-24T06:24:33.760Z,3.43
2022-09-24T06:27:03.216Z,3.70
2022-09-24T06:29:31.357Z,3.40
2022-09-24T06:32:02.261Z,3.60
2022-09-24T06:34:30.569Z,4.40
2022-09-24T06:36:58.602Z,5.00
2022-09-24T06:39:27.801Z,5.40
2022-09-24T06:41:56.378Z,4.30
2022-09-24T06:44:27.210Z,3.13
2022-09-24T06:46:55.602Z,2.70
2022-09-24T06:49:24.087Z,3.13
2022-09-24T06:51:52.154Z,3.17
2022-09-24T06:54:20.523Z,2.47
2022-09-24T06:56:48.755Z,2.93
2022-09-24T06:59:17.177Z,2.13
2022-09-24T07:01:46.881Z,2.37
2022-09-24T07:04:15.071Z,2.40
2022-09-24T07:07:00.746Z,2.20
2022-09-24T07:09:28.875Z,2.67
2022-09-24T07:12:01.544Z,2.13
2022-09-24T07:14:30.254Z,2.13
2022-09-24T07:16:59.731Z,2.00
2022-09-24T07:19:27.829Z,2.63
2022-09-24T07:21:57.834Z,3.20
2022-09-24T07:24:25.888Z,2.33
2022-09-24T07:26:54.503Z,2.17
2022-09-24T07:29:22.633Z,2.30
2022-09-24T07:31:51.271Z,2.20
2022-09-24T07:34:20.851Z,2.30
2022-09-24T07:36:48.876Z,3.67
2022-09-24T07:39:16.987Z,2.77
2022-09-24T07:41:45.196Z,2.80
2022-09-24T07:44:13.577Z,3.23
2022-09-24T07:46:41.709Z,2.90
2022-09-24T07:49:10.052Z,3.00
2022-09-24T07:51:39.574Z,3.33
2022-09-24T07:54:07.933Z,3.60
2022-09-24T07:56:36.103Z,3.70
2022-09-24T07:59:06.408Z,2.90
2022-09-24T08:01:36.297Z,3.10
2022-09-24T08:04:05.190Z,3.30
2022-09-24T08:06:38.929Z,2.70
2022-09-24T08:09:10.022Z,3.47
2022-09-24T08:11:39.288Z,3.27
2022-09-24T08:14:07.321Z,3.60
2022-09-24T08:16:35.509Z,3.97
2022-09-24T08:19:03.528Z,3.53
2022-09-24T08:21:32.353Z,3.10
2022-09-24T08:24:00.531Z,3.20
2022-09-24T08:26:29.897Z,3.33
2022-09-24T08:28:58.631Z,3.30
2022-09-24T08:31:27.075Z,3.83
2022-09-24T08:33:55.201Z,3.23
2022-09-24T08:36:25.505Z,3.70
2022-09-24T08:38:56.012Z,2.80
2022-09-24T08:41:44.822Z,3.03
2022-09-24T08:44:15.601Z,2.63
2022-09-24T08:47:03.745Z,3.47
2022-09-24T08:49:34.826Z,3.13
2022-09-24T08:52:11.265Z,4.03
2022-09-24T08:54:39.659Z,4.03
2022-09-24T08:57:14.554Z,4.30
2022-09-24T08:59:44.176Z,5.20
2022-09-24T09:02:22.369Z,5.00
2022-09-24T09:04:58.135Z,5.40
2022-09-24T09:07:28.888Z,5.57
2022-09-24T09:10:00.795Z,5.70
2022-09-24T09:12:35.874Z,4.60
2022-09-24T09:15:07.073Z,5.57
2022-09-24T09:17:42.630Z,5.10
2022-09-24T09:20:15.683Z,4.67
2022-09-24T09:22:46.706Z,3.57
2022-09-24T09:25:19.934Z,4.97
2022-09-24T09:27:51.979Z,4.90
2022-09-24T09:30:21.968Z,4.20
2022-09-24T09:33:10.257Z,3.90
2022-09-24T09:35:44.000Z,4.17
2022-09-24T09:38:19.263Z,4.10
2022-09-24T09:40:49.988Z,4.03
2022-09-24T09:43:21.326Z,4.60
2022-09-24T09:45:59.416Z,5.10
2022-09-24T09:48:34.781Z,5.17
2022-09-24T09:51:05.261Z,3.83
2022-09-24T09:53:33.448Z,4.70
2022-09-24T09:56:02.981Z,4.60
2022-09-24T09:58:33.589Z,4.10
2022-09-24T10:01:06.236Z,6.20
2022-09-24T10:03:48.013Z,5.63
2022-09-24T10:06:24.621Z,5.90
2022-09-24T10:08:52.714Z,6.30
2022-09-24T10:11:20.907Z,6.60
2022-09-24T10:14:02.802Z,6.83
2022-09-24T10:16:31.064Z,5.70
2022-09-24T10:18:59.082Z,7.10
2022-09-24T10:21:32.214Z,6.03
2022-09-24T10:24:01.611Z,5.97
2022-09-24T10:26:40.929Z,6.73
2022-09-24T10:29:32.093Z,6.73
2022-09-24T10:32:00.256Z,6.37
2022-09-24T10:34:29.720Z,6.40
2022-09-24T10:37:06.051Z,5.80
2022-09-24T10:39:36.879Z,6.90
2022-09-24T10:42:05.327Z,5.43
2022-09-24T10:44:37.261Z,5.37
2022-09-24T10:47:16.147Z,5.23
2022-09-24T10:50:00.857Z,4.43
2022-09-24T10:52:41.691Z,5.67
2022-09-24T10:55:19.228Z,5.23
2022-09-24T10:57:57.033Z,4.20
2022-09-24T11:00:30.103Z,5.03
2022-09-24T11:03:26.714Z,4.60
2022-09-24T11:05:58.483Z,4.80
2022-09-24T11:08:45.098Z,4.77
2022-09-24T11:11:21.979Z,4.23
2022-09-24T11:13:56.181Z,5.47
2022-09-24T11:16:51.977Z,4.53
2022-09-24T11:19:34.412Z,4.87
2022-09-24T11:22:12.839Z,4.60
2022-09-24T11:24:58.806Z,4.60
2022-09-24T11:27:48.013Z,4.50
2022-09-24T11:30:18.059Z,4.37
2022-09-24T11:32:58.864Z,4.87
2022-09-24T11:35:48.935Z,4.10
2022-09-24T11:38:20.079Z,3.90
2022-09-24T11:41:01.248Z,3.93
2022-09-24T11:44:13.586Z,4.77
2022-09-24T11:46:49.742Z,4.27
2022-09-24T11:49:34.051Z,3.90
2022-09-24T11:52:05.831Z,3.80
2022-09-24T11:54:37.146Z,3.93
2022-09-24T11:57:10.634Z,3.83
2022-09-24T11:59:44.312Z,3.50
2022-09-24T12:02:19.285Z,4.30
2022-09-24T12:04:53.917Z,3.90
2022-09-24T12:07:25.891Z,4.60
2022-09-24T12:09:59.231Z,5.20
2022-09-24T12:12:29.783Z,4.60
2022-09-24T12:15:01.662Z,4.97
2022-09-24T12:17:33.396Z,6.37
2022-09-24T12:20:05.455Z,4.80
2022-09-24T12:22:34.681Z,4.63
2022-09-24T12:25:03.069Z,4.70
2022-09-24T12:27:35.321Z,4.90
2022-09-24T12:30:25.501Z,3.73
2022-09-24T12:33:01.804Z,4.03
2022-09-24T12:35:38.663Z,4.30
2022-09-24T12:38:09.972Z,3.47
2022-09-24T12:41:06.845Z,3.20
2022-09-24T12:43:39.588Z,3.33
2022-09-24T12:46:09.324Z,3.80
2022-09-24T12:48:38.818Z,3.17
2022-09-24T12:51:10.489Z,3.17
2022-09-24T12:53:40.454Z,4.10
2022-09-24T12:56:09.770Z,3.77
2022-09-24T12:58:39.791Z,3.20
2022-09-24T13:01:13.205Z,3.70
2022-09-24T13:03:46.918Z,4.10
2022-09-24T13:06:31.442Z,4.33
2022-09-24T13:08:59.868Z,5.30
2022-09-24T13:11:30.873Z,3.60
2022-09-24T13:14:07.648Z,4.00
2022-09-24T13:16:39.663Z,3.90
2022-09-24T13:19:25.282Z,3.53
2022-09-24T13:21:59.986Z,3.07
2022-09-24T13:24:32.841Z,3.07
2022-09-24T13:27:21.911Z,4.60
2022-09-24T13:30:04.989Z,4.13
2022-09-24T13:32:35.572Z,4.50
2022-09-24T13:35:08.158Z,4.13
2022-09-24T13:37:41.300Z,4.00
2022-09-24T13:40:18.090Z,3.57
2022-09-24T13:42:47.990Z,3.93
2022-09-24T13:45:19.557Z,4.37
2022-09-24T13:47:49.635Z,4.27
2022-09-24T13:50:19.612Z,4.10
2022-09-24T13:52:52.941Z,4.50
2022-09-24T13:55:23.216Z,4.00
2022-09-24T13:57:51.518Z,4.53
2022-09-24T14:00:22.062Z,4.10
2022-09-24T14:02:56.739Z,4.70
2022-09-24T14:05:25.595Z,5.20
2022-09-24T14:07:56.782Z,4.57
2022-09-24T14:10:26.009Z,5.10
2022-09-24T14:13:05.744Z,4.50
2022-09-24T14:15:33.786Z,4.30
2022-09-24T14:18:01.817Z,4.90
2022-09-24T14:20:34.520Z,4.67
2022-09-24T14:23:05.362Z,4.10
2022-09-24T14:25:35.541Z,3.80
2022-09-24T14:28:04.664Z,4.17
2022-09-24T14:30:33.963Z,4.47
2022-09-24T14:33:04.358Z,3.87
2022-09-24T14:35:34.353Z,4.20
2022-09-24T14:38:06.601Z,3.53
2022-09-24T14:40:42.149Z,4.30
2022-09-24T14:43:17.975Z,6.97
2022-09-24T14:45:47.023Z,3.47
2022-09-24T14:48:24.568Z,3.87
2022-09-24T14:50:52.554Z,2.93
2022-09-24T14:53:25.977Z,4.27
2022-09-24T14:55:56.478Z,3.77
2022-09-24T14:58:26.605Z,3.07
2022-09-24T15:00:56.552Z,3.77
2022-09-24T15:03:29.715Z,3.67
2022-09-24T15:06:09.525Z,5.10
2022-09-24T15:08:38.997Z,4.27
2022-09-24T15:11:07.633Z,4.13
2022-09-24T15:13:37.244Z,6.03
2022-09-24T15:16:20.145Z,5.43
2022-09-24T15:18:57.126Z,5.00
2022-09-24T15:21:25.257Z,5.23
2022-09-24T15:23:55.097Z,7.03
2022-09-24T15:26:25.096Z,7.70
2022-09-24T15:28:53.209Z,5.10
2022-09-24T15:31:21.308Z,4.80
2022-09-24T15:33:49.300Z,5.17
2022-09-24T15:36:20.912Z,5.90
2022-09-24T15:38:49.305Z,5.40
2022-09-24T15:41:19.535Z,5.10
2022-09-24T15:43:47.689Z,5.60
2022-09-24T15:46:21.927Z,5.10
2022-09-24T15:48:50.367Z,5.40
2022-09-24T15:51:22.163Z,4.80
2022-09-24T15:53:51.187Z,5.13
2022-09-24T15:56:20.626Z,4.47
2022-09-24T15:58:48.986Z,5.57
2022-09-24T16:01:18.922Z,4.43
2022-09-24T16:03:47.059Z,4.27
2022-09-24T16:06:15.246Z,5.50
2022-09-24T16:08:43.847Z,4.63
2022-09-24T16:11:11.903Z,4.87
2022-09-24T16:13:41.207Z,4.40
2022-09-24T16:16:09.735Z,5.63
2022-09-24T16:18:39.816Z,6.30
2022-09-24T16:21:08.458Z,5.70
2022-09-24T16:23:36.490Z,5.80
2022-09-24T16:26:05.981Z,6.33
2022-09-24T16:28:34.174Z,6.47
2022-09-24T16:31:06.541Z,6.80
2022-09-24T16:33:38.729Z,6.80
2022-09-24T16:36:15.459Z,6.77
2022-09-24T16:38:43.723Z,6.30
2022-09-24T16:41:11.978Z,6.20
2022-09-24T16:43:40.368Z,6.60
2022-09-24T16:46:23.307Z,6.67
2022-09-24T16:49:00.752Z,7.63
2022-09-24T16:51:28.773Z,7.23
2022-09-24T16:53:57.400Z,7.90
2022-09-24T16:56:25.941Z,8.00
2022-09-24T16:58:56.811Z,7.20
2022-09-24T17:01:32.758Z,7.60
2022-09-24T17:04:01.073Z,6.37
2022-09-24T17:06:30.743Z,9.43
2022-09-24T17:09:16.576Z,7.97
2022-09-24T17:11:46.770Z,7.97
2022-09-24T17:14:15.485Z,13.40
2022-09-24T17:16:45.418Z,13.57
2022-09-24T17:19:15.293Z,11.50
2022-09-24T17:21:46.097Z,10.43
2022-09-24T17:24:17.840Z,12.27
2022-09-24T17:26:49.516Z,11.80
2022-09-24T17:29:20.844Z,12.40
2022-09-24T17:31:52.153Z,12.47
2022-09-24T17:34:20.378Z,10.80
2022-09-24T17:36:48.820Z,10.10
2022-09-24T17:39:16.924Z,10.23
2022-09-24T17:41:45.154Z,9.00
2022-09-24T17:44:15.731Z,7.30
2022-09-24T17:46:44.289Z,8.70
2022-09-24T17:49:15.499Z,9.07
2022-09-24T17:51:44.227Z,15.63
2022-09-24T17:54:13.449Z,13.23
2022-09-24T17:56:41.729Z,16.60
2022-09-24T17:59:11.157Z,24.00
2022-09-24T18:01:40.117Z,29.47
2022-09-24T18:04:11.877Z,44.93
2022-09-24T18:06:42.610Z,19.67
2022-09-24T18:09:12.951Z,29.00
2022-09-24T18:11:42.845Z,69.00
2022-09-24T18:14:14.686Z,84.60
2022-09-24T18:16:43.236Z,103.47
2022-09-24T18:19:12.444Z,123.80
2022-09-24T18:21:41.930Z,127.57
2022-09-24T18:24:10.915Z,109.33
2022-09-24T18:26:40.482Z,102.27
2022-09-24T18:29:12.432Z,44.10
2022-09-24T18:31:41.401Z,25.10
2022-09-24T18:34:13.293Z,36.07
2022-09-24T18:36:43.900Z,23.97
2022-09-24T18:39:21.990Z,18.57
2022-09-24T18:41:52.228Z,16.50
2022-09-24T18:44:20.760Z,14.97
2022-09-24T18:46:49.994Z,12.07
2022-09-24T18:49:19.545Z,14.63
2022-09-24T18:51:49.265Z,13.83
2022-09-24T18:54:18.406Z,13.17
2022-09-24T18:56:47.159Z,13.23
2022-09-24T18:59:17.293Z,13.13
2022-09-24T19:01:46.883Z,14.20
2022-09-24T19:04:15.845Z,16.23
2022-09-24T19:06:45.530Z,16.40
2022-09-24T19:09:17.442Z,15.00
2022-09-24T19:11:46.303Z,13.50
2022-09-24T19:14:17.995Z,12.10
2022-09-24T19:16:47.355Z,13.80
2022-09-24T19:19:16.422Z,12.10
2022-09-24T19:21:45.057Z,12.17
2022-09-24T19:24:14.682Z,10.33
2022-09-24T19:26:43.409Z,13.00
2022-09-24T19:29:11.898Z,11.90
2022-09-24T19:31:41.747Z,12.83
2022-09-24T19:34:12.588Z,12.70
2022-09-24T19:36:43.719Z,12.50
2022-09-24T19:39:15.209Z,13.70
2022-09-24T19:41:43.467Z,12.03
2022-09-24T19:44:12.094Z,14.13
2022-09-24T19:46:41.186Z,12.47
2022-09-24T19:49:09.676Z,10.53
2022-09-24T19:51:38.338Z,11.77
2022-09-24T19:54:08.388Z,11.20
2022-09-24T19:56:38.449Z,12.17
2022-09-24T19:59:08.062Z,14.27
2022-09-24T20:01:36.368Z,11.33
2022-09-24T20:04:07.399Z,11.40
2022-09-24T20:06:37.187Z,10.67
2022-09-24T20:09:05.369Z,12.23
2022-09-24T20:11:33.818Z,11.17
2022-09-24T20:14:05.921Z,12.77
2022-09-24T20:16:34.403Z,12.10
2022-09-24T20:19:03.403Z,10.07
2022-09-24T20:21:34.755Z,11.07
2022-09-24T20:24:05.712Z,11.70
2022-09-24T20:26:51.956Z,10.50
2022-09-24T20:29:23.123Z,12.07
2022-09-24T20:31:53.533Z,12.80
2022-09-24T20:34:23.787Z,11.50
2022-09-24T20:36:52.167Z,13.30
2022-09-24T20:39:20.491Z,14.80
2022-09-24T20:41:49.486Z,13.60
2022-09-24T20:44:17.702Z,15.23
2022-09-24T20:46:47.238Z,11.97
2022-09-24T20:49:22.307Z,13.83
2022-09-24T20:51:56.306Z,13.93
2022-09-24T20:54:25.875Z,14.30
2022-09-24T20:56:54.054Z,14.00
2022-09-24T20:59:22.255Z,13.70
2022-09-24T21:01:51.848Z,11.93
2022-09-24T21:04:21.290Z,13.83
2022-09-24T21:06:49.668Z,13.87
2022-09-24T21:09:18.229Z,12.50
2022-09-24T21:11:46.331Z,14.23
2022-09-24T21:14:14.810Z,12.40
2022-09-24T21:16:43.007Z,13.93
2022-09-24T21:19:12.838Z,13.03
2022-09-24T21:21:41.296Z,13.90
2022-09-24T21:24:12.454Z,13.20
2022-09-24T21:26:41.258Z,13.33
2022-09-24T21:29:11.973Z,13.77
2022-09-24T21:31:42.048Z,14.23
2022-09-24T21:34:10.618Z,14.97
2022-09-24T21:36:44.720Z,14.27
2022-09-24T21:39:15.731Z,15.40
2022-09-24T21:41:44.551Z,13.90
2022-09-24T21:44:14.343Z,13.90
2022-09-24T21:46:43.919Z,14.77
2022-09-24T21:49:12.612Z,14.67
2022-09-24T21:51:43.516Z,15.33
2022-09-24T21:54:15.645Z,16.53
2022-09-24T21:56:44.295Z,14.43
2022-09-24T21:59:26.238Z,15.83
2022-09-24T22:01:54.798Z,15.30
2022-09-24T22:04:23.189Z,21.03
2022-09-24T22:06:52.615Z,17.40
2022-09-24T22:09:21.716Z,17.40
2022-09-24T22:11:52.560Z,16.97
2022-09-24T22:14:20.657Z,18.83
2022-09-24T22:16:48.691Z,17.20
2022-09-24T22:19:16.831Z,16.30
2022-09-24T22:21:44.910Z,15.60
2022-09-24T22:24:14.462Z,15.60
2022-09-24T22:26:42.531Z,14.30
2022-09-24T22:29:10.604Z,15.50
2022-09-24T22:31:38.674Z,14.47
2022-09-24T22:34:24.056Z,12.73
2022-09-24T22:36:52.120Z,11.90
2022-09-24T22:39:21.763Z,11.73
2022-09-24T22:41:49.790Z,11.03
2022-09-24T22:44:17.940Z,12.60
2022-09-24T22:46:46.042Z,10.87
2022-09-24T22:49:14.300Z,12.17
2022-09-24T22:51:42.355Z,12.40
2022-09-24T22:54:11.322Z,11.03
2022-09-24T22:56:40.717Z,11.47
2022-09-24T22:59:08.741Z,11.50
2022-09-24T23:01:40.657Z,10.27
2022-09-24T23:04:08.719Z,11.60
2022-09-24T23:06:37.923Z,9.30
2022-09-24T23:09:06.269Z,12.13
2022-09-24T23:11:35.928Z,11.30
2022-09-24T23:14:07.245Z,13.10
2022-09-24T23:16:36.980Z,11.90
2022-09-24T23:19:06.773Z,12.30
2022-09-24T23:21:35.992Z,11.50
2022-09-24T23:24:06.342Z,12.77
2022-09-24T23:26:34.700Z,11.27
2022-09-24T23:29:09.330Z,10.97
2022-09-24T23:31:38.825Z,11.47
2022-09-24T23:34:08.002Z,11.70
2022-09-24T23:36:36.268Z,10.60
2022-09-24T23:39:05.476Z,11.43
2022-09-24T23:41:33.562Z,11.50
2022-09-24T23:44:01.841Z,12.30
2022-09-24T23:46:30.349Z,12.83
2022-09-24T23:48:59.952Z,12.00
2022-09-24T23:51:28.223Z,11.23
2022-09-24T23:53:56.321Z,10.60
2022-09-24T23:56:24.371Z,8.63
2022-09-24T23:58:52.787Z,6.90
